Time;durP1;ratioP1;P1;durP2;ratioP2;P2;SDS_P1;SDS_P2;PMS_P1;PMS_P2;Temp;Humidity;BMP_temperature;BMP_pressure;BME280_temperature;BME280_humidity;BME280_pressure;Samples;Min_cycle;Max_cycle;Signal;HPM_P1;HPM_P2
2022/06/08 00:01:44;;;;;;;1.65;1.13;;;15.10;99.90;;;;;;5113755;28;20200;-58
2022/06/08 00:04:12;;;;;;;2.60;0.90;;;15.10;99.90;;;;;;5113474;28;20173;-58
2022/06/08 00:06:38;;;;;;;1.02;0.77;;;15.20;99.90;;;;;;5112108;28;20200;-59
2022/06/08 00:09:04;;;;;;;0.85;0.75;;;15.20;99.90;;;;;;5112518;28;20713;-61
2022/06/08 00:11:29;;;;;;;1.00;0.90;;;15.20;99.90;;;;;;5113520;28;20209;-59
2022/06/08 00:13:55;;;;;;;1.23;0.60;;;15.30;99.90;;;;;;5113342;28;20177;-59
2022/06/08 00:16:21;;;;;;;0.98;0.90;;;15.30;99.90;;;;;;5113794;28;20169;-58
2022/06/08 00:18:47;;;;;;;0.70;0.70;;;15.30;99.90;;;;;;5112357;28;20173;-58
2022/06/08 00:21:14;;;;;;;1.17;0.80;;;15.30;99.90;;;;;;5113519;28;20566;-58
2022/06/08 00:23:41;;;;;;;0.60;0.60;;;15.30;99.90;;;;;;5113390;28;20185;-60
2022/06/08 00:26:07;;;;;;;0.80;0.70;;;15.30;99.90;;;;;;5113259;28;20214;-59
2022/06/08 00:28:33;;;;;;;1.27;0.70;;;15.30;99.90;;;;;;5112349;28;20264;-58
2022/06/08 00:30:59;;;;;;;0.70;0.70;;;15.30;99.90;;;;;;5113499;28;20259;-59
2022/06/08 00:33:24;;;;;;;2.05;1.05;;;15.30;99.90;;;;;;5113226;28;20307;-58
2022/06/08 00:35:50;;;;;;;0.70;0.70;;;15.30;99.90;;;;;;5113403;28;20170;-58
2022/06/08 00:38:16;;;;;;;0.82;0.82;;;15.20;99.90;;;;;;5111997;28;20523;-59
2022/06/08 00:41:04;;;;;;;0.70;0.70;;;15.30;99.90;;;;;;5113150;28;20208;-60
2022/06/08 00:43:30;;;;;;;0.80;0.80;;;15.30;99.90;;;;;;5113461;28;20169;-59
2022/06/08 00:45:56;;;;;;;0.73;0.73;;;15.30;99.90;;;;;;5113503;28;20636;-59
2022/06/08 00:48:24;;;;;;;1.48;1.23;;;15.30;99.90;;;;;;5113262;28;20657;-59
2022/06/08 00:50:54;;;;;;;0.77;0.77;;;15.30;99.90;;;;;;5113197;28;20178;-59
2022/06/08 00:53:27;;;;;;;1.15;0.70;;;15.30;99.90;;;;;;5113238;28;20626;-59
2022/06/08 00:55:54;;;;;;;0.77;0.75;;;15.30;99.90;;;;;;5115244;28;20221;-59
2022/06/08 00:58:25;;;;;;;0.63;0.63;;;15.20;99.90;;;;;;5116964;28;20165;-59
2022/06/08 01:00:51;;;;;;;0.88;0.88;;;15.20;99.90;;;;;;5116917;28;20670;-59
2022/06/08 01:03:17;;;;;;;0.77;0.77;;;15.10;99.90;;;;;;5115515;28;20177;-59
2022/06/08 01:06:05;;;;;;;1.65;0.70;;;15.10;99.90;;;;;;5116642;28;20681;-59
2022/06/08 01:08:36;;;;;;;1.00;0.77;;;15.10;99.90;;;;;;5116871;28;20197;-59
2022/06/08 01:11:06;;;;;;;1.17;0.60;;;15.10;99.90;;;;;;5116529;28;20668;-58
2022/06/08 01:13:34;;;;;;;0.65;0.65;;;15.10;99.90;;;;;;5117144;28;20172;-59
2022/06/08 01:16:05;;;;;;;0.70;0.52;;;15.10;99.90;;;;;;5116566;28;20201;-59
2022/06/08 01:18:31;;;;;;;1.13;0.80;;;15.10;99.90;;;;;;5116239;28;20173;-59
2022/06/08 01:21:22;;;;;;;0.98;0.88;;;15.10;99.90;;;;;;5115180;28;20662;-59
2022/06/08 01:23:50;;;;;;;0.80;0.80;;;15.10;99.90;;;;;;5116252;28;20211;-59
2022/06/08 01:26:41;;;;;;;0.70;0.70;;;15.10;99.90;;;;;;5116253;28;20624;-60
2022/06/08 01:29:16;;;;;;;1.00;0.90;;;15.10;99.90;;;;;;5116428;28;20181;-59
2022/06/08 01:31:57;;;;;;;0.98;0.73;;;15.10;99.90;;;;;;5116315;28;20200;-59
2022/06/08 01:34:34;;;;;;;0.80;0.80;;;15.00;99.90;;;;;;5116275;28;20176;-59
2022/06/08 01:37:11;;;;;;;1.02;0.70;;;15.00;99.90;;;;;;5116306;28;20211;-58
2022/06/08 01:40:02;;;;;;;1.25;0.75;;;15.00;99.90;;;;;;5116535;28;20204;-59
2022/06/08 01:42:47;;;;;;;0.95;0.77;;;14.90;99.90;;;;;;5116017;28;20189;-60
2022/06/08 01:45:33;;;;;;;1.25;0.98;;;14.90;99.90;;;;;;5116081;28;20165;-59
2022/06/08 01:48:07;;;;;;;0.80;0.80;;;14.90;99.90;;;;;;5116179;28;20252;-58
2022/06/08 01:51:03;;;;;;;0.85;0.80;;;14.90;99.90;;;;;;5115848;28;20192;-59
2022/06/08 01:53:45;;;;;;;1.00;0.65;;;14.90;99.90;;;;;;5115781;28;20194;-59
2022/06/08 01:56:23;;;;;;;0.70;0.60;;;14.90;99.90;;;;;;5115891;28;20622;-58
2022/06/08 01:59:06;;;;;;;0.70;0.70;;;14.90;99.90;;;;;;5115805;28;20223;-59
2022/06/08 02:01:41;;;;;;;1.10;0.80;;;14.90;99.90;;;;;;5115588;28;20204;-58
2022/06/08 02:04:23;;;;;;;0.70;0.70;;;14.90;99.90;;;;;;5114233;28;20298;-59
2022/06/08 02:07:11;;;;;;;0.63;0.63;;;14.90;99.90;;;;;;5114464;28;20657;-58
2022/06/08 02:09:40;;;;;;;1.33;0.65;;;14.90;99.90;;;;;;5115542;28;20169;-58
2022/06/08 02:12:08;;;;;;;0.60;0.60;;;14.80;99.90;;;;;;5115261;28;20585;-59
2022/06/08 02:14:34;;;;;;;0.68;0.68;;;14.80;99.90;;;;;;5115266;28;20184;-58
2022/06/08 02:17:08;;;;;;;0.82;0.82;;;14.80;99.90;;;;;;5115466;28;20682;-58
2022/06/08 02:19:41;;;;;;;0.90;0.85;;;14.80;99.90;;;;;;5115214;28;20649;-58
2022/06/08 02:22:12;;;;;;;0.70;0.70;;;14.80;99.90;;;;;;5115443;28;20212;-59
2022/06/08 02:24:47;;;;;;;0.85;0.85;;;14.80;99.90;;;;;;5115341;28;20248;-58
2022/06/08 02:27:22;;;;;;;0.82;0.82;;;14.80;99.90;;;;;;5115133;28;20165;-59
2022/06/08 02:29:58;;;;;;;1.10;1.00;;;14.80;99.90;;;;;;5115231;28;20172;-58
2022/06/08 02:35:43;;;;;;;0.85;0.85;;;14.80;99.90;;;;;;5115171;28;20204;-59
2022/06/08 02:38:12;;;;;;;0.98;0.90;;;14.80;99.90;;;;;;5115065;28;20165;-59
2022/06/08 02:40:45;;;;;;;1.83;1.10;;;14.80;99.90;;;;;;5114862;28;20233;-59
2022/06/08 02:43:36;;;;;;;1.73;1.00;;;14.80;99.90;;;;;;5115079;28;20522;-58
2022/06/08 02:46:33;;;;;;;1.52;0.98;;;14.80;99.90;;;;;;5109666;28;20192;-59
2022/06/08 02:49:07;;;;;;;1.17;1.00;;;14.80;99.90;;;;;;5114740;28;20214;-58
2022/06/08 02:51:33;;;;;;;1.10;0.93;;;14.90;99.90;;;;;;5113484;28;20264;-59
2022/06/08 02:54:02;;;;;;;1.00;0.90;;;14.90;99.90;;;;;;5113283;28;20180;-59
2022/06/08 02:56:39;;;;;;;1.20;0.90;;;14.80;99.90;;;;;;5114446;28;20169;-59
2022/06/08 02:59:14;;;;;;;1.00;0.93;;;14.80;99.90;;;;;;5114685;28;20261;-59
2022/06/08 03:02:26;;;;;;;1.17;0.80;;;14.80;99.90;;;;;;5114411;28;20569;-60
2022/06/08 03:05:27;;;;;;;1.40;1.10;;;14.80;99.90;;;;;;5093288;28;20238;-58
2022/06/08 03:08:04;;;;;;;1.05;0.95;;;14.80;99.90;;;;;;5112482;28;20238;-59
2022/06/08 03:10:34;;;;;;;1.58;1.10;;;14.80;99.90;;;;;;5113048;28;20180;-58
2022/06/08 03:13:00;;;;;;;1.17;1.08;;;14.80;99.90;;;;;;5114202;28;20204;-58
2022/06/08 03:15:26;;;;;;;0.93;0.90;;;14.70;99.90;;;;;;5114440;28;20201;-58
2022/06/08 03:17:52;;;;;;;1.50;1.08;;;14.70;99.90;;;;;;5112719;28;20174;-61
2022/06/08 03:20:20;;;;;;;0.93;0.93;;;14.70;99.90;;;;;;5112955;28;20212;-58
2022/06/08 03:22:46;;;;;;;1.30;1.20;;;14.70;99.90;;;;;;5114168;28;20224;-58
2022/06/08 03:25:12;;;;;;;1.30;1.20;;;14.70;99.90;;;;;;5114033;28;20173;-58
2022/06/08 03:27:38;;;;;;;1.30;1.20;;;14.70;99.90;;;;;;5113817;28;20540;-58
2022/06/08 03:30:06;;;;;;;1.48;1.38;;;14.70;99.90;;;;;;5114096;28;20165;-60
2022/06/08 03:32:31;;;;;;;1.25;1.15;;;14.70;99.90;;;;;;5114239;28;20257;-59
2022/06/08 03:34:57;;;;;;;1.08;0.98;;;14.70;99.90;;;;;;5112721;28;20256;-58
2022/06/08 03:37:23;;;;;;;1.13;1.00;;;14.70;99.90;;;;;;5113835;28;20297;-58
2022/06/08 03:39:49;;;;;;;1.60;1.30;;;14.70;99.90;;;;;;5113723;28;20227;-58
2022/06/08 03:42:15;;;;;;;2.40;1.42;;;14.70;99.90;;;;;;5113653;28;20212;-58
2022/06/08 03:44:41;;;;;;;1.33;1.20;;;14.70;99.90;;;;;;5113966;28;20170;-60
2022/06/08 03:47:15;;;;;;;2.10;1.33;;;14.70;99.90;;;;;;5112633;28;20686;-59
2022/06/08 03:49:41;;;;;;;1.65;1.40;;;14.80;99.90;;;;;;5113778;28;20204;-59
2022/06/08 03:52:17;;;;;;;1.15;1.05;;;14.80;99.90;;;;;;5113658;28;20200;-59
2022/06/08 03:54:48;;;;;;;1.45;1.35;;;14.80;99.90;;;;;;5113540;28;20177;-58
2022/06/08 03:57:15;;;;;;;1.25;1.15;;;14.80;99.90;;;;;;5113710;28;20572;-58
2022/06/08 03:59:42;;;;;;;1.42;1.02;;;14.80;99.90;;;;;;5113516;28;20522;-59
2022/06/08 04:02:09;;;;;;;1.27;1.17;;;14.90;99.90;;;;;;5112215;28;20220;-58
2022/06/08 04:04:36;;;;;;;1.38;1.27;;;14.90;99.90;;;;;;5113576;28;20203;-58
2022/06/08 04:07:02;;;;;;;1.42;1.17;;;14.90;99.90;;;;;;5113295;28;20193;-59
2022/06/08 04:09:28;;;;;;;1.30;1.20;;;14.90;99.90;;;;;;5113658;28;20208;-59
2022/06/08 04:11:54;;;;;;;1.85;1.50;;;14.90;99.90;;;;;;5112472;28;20575;-59
2022/06/08 04:14:21;;;;;;;1.23;1.13;;;14.90;99.90;;;;;;5113546;28;20223;-59
2022/06/08 04:16:47;;;;;;;1.88;1.40;;;14.90;99.90;;;;;;5112300;28;20177;-59
2022/06/08 04:19:13;;;;;;;1.20;1.10;;;14.90;99.90;;;;;;5112198;28;20170;-59
2022/06/08 04:21:40;;;;;;;1.48;1.30;;;14.90;99.90;;;;;;5113260;28;20254;-59
2022/06/08 04:24:07;;;;;;;1.52;1.25;;;15.00;99.90;;;;;;5113498;28;20329;-59
2022/06/08 04:26:33;;;;;;;1.20;1.10;;;15.00;99.90;;;;;;5113338;28;20645;-59
2022/06/08 04:28:59;;;;;;;2.20;1.20;;;14.90;99.90;;;;;;5113456;28;20173;-59
2022/06/08 04:31:25;;;;;;;1.30;1.20;;;14.90;99.90;;;;;;5117318;28;20701;-59
2022/06/08 04:33:53;;;;;;;1.67;1.40;;;15.00;99.90;;;;;;5099088;28;20542;-59
2022/06/08 04:36:19;;;;;;;3.15;1.25;;;15.00;99.90;;;;;;5117317;28;20192;-59
2022/06/08 04:38:44;;;;;;;1.25;1.15;;;15.00;99.90;;;;;;5117215;28;20177;-59
2022/06/08 04:41:10;;;;;;;2.47;1.20;;;15.10;99.90;;;;;;5115979;28;20217;-59
2022/06/08 04:43:37;;;;;;;1.33;0.93;;;15.10;99.90;;;;;;5116026;28;20252;-59
2022/06/08 04:46:03;;;;;;;1.17;0.90;;;15.20;99.90;;;;;;5115986;28;20174;-59
2022/06/08 04:48:28;;;;;;;1.48;1.38;;;15.30;99.90;;;;;;5117064;28;20169;-59
2022/06/08 04:50:54;;;;;;;0.88;0.88;;;15.30;99.90;;;;;;5116887;28;20515;-59
2022/06/08 04:53:20;;;;;;;1.40;1.20;;;15.40;99.90;;;;;;5115874;28;20177;-59
2022/06/08 04:55:46;;;;;;;1.50;1.20;;;15.40;99.90;;;;;;5116903;28;20511;-59
2022/06/08 04:58:12;;;;;;;1.48;1.00;;;15.40;99.90;;;;;;5116894;28;20188;-57
2022/06/08 05:00:37;;;;;;;1.20;1.10;;;15.40;99.90;;;;;;5116805;28;20212;-58
2022/06/08 05:03:03;;;;;;;1.23;1.10;;;15.50;99.90;;;;;;5116481;28;20196;-58
2022/06/08 05:05:32;;;;;;;0.90;0.90;;;15.50;99.90;;;;;;5116193;28;20184;-58
2022/06/08 05:07:59;;;;;;;1.00;0.90;;;15.50;99.90;;;;;;5116867;28;20177;-58
2022/06/08 05:10:28;;;;;;;0.93;0.93;;;15.60;99.90;;;;;;5116800;28;20639;-58
2022/06/08 05:12:54;;;;;;;1.30;1.00;;;15.70;99.90;;;;;;5116744;28;20299;-57
2022/06/08 05:15:29;;;;;;;1.77;0.90;;;15.70;99.90;;;;;;5115494;28;20256;-57
2022/06/08 05:17:56;;;;;;;1.70;1.27;;;15.70;99.90;;;;;;5116539;28;20647;-58
2022/06/08 05:20:23;;;;;;;1.50;1.10;;;15.80;99.90;;;;;;5116190;28;20537;-58
2022/06/08 05:22:49;;;;;;;1.10;1.00;;;15.70;99.90;;;;;;5116522;28;20173;-58
2022/06/08 05:25:20;;;;;;;1.00;0.90;;;15.70;99.90;;;;;;5116405;28;20256;-58
2022/06/08 05:27:46;;;;;;;1.15;1.05;;;15.70;99.90;;;;;;5116339;28;20165;-58
2022/06/08 05:30:12;;;;;;;1.08;0.98;;;15.60;99.90;;;;;;5116108;28;20176;-58
2022/06/08 05:32:39;;;;;;;2.22;0.82;;;15.60;99.90;;;;;;5113914;28;20256;-58
2022/06/08 05:35:05;;;;;;;1.10;1.00;;;15.70;99.90;;;;;;5116223;28;20165;-59
2022/06/08 05:37:31;;;;;;;1.48;1.10;;;15.70;99.90;;;;;;5114817;28;20685;-57
2022/06/08 05:39:56;;;;;;;1.05;0.95;;;15.70;99.90;;;;;;5116050;28;20213;-58
2022/06/08 05:42:23;;;;;;;1.73;1.10;;;15.70;99.90;;;;;;5115700;28;20552;-58
2022/06/08 05:44:49;;;;;;;1.52;1.15;;;15.80;99.90;;;;;;5115871;28;20656;-58
2022/06/08 05:47:16;;;;;;;1.55;1.00;;;15.80;99.90;;;;;;5114588;28;20268;-58
2022/06/08 05:49:42;;;;;;;1.80;1.00;;;15.90;99.90;;;;;;5115917;28;20165;-58
2022/06/08 05:52:09;;;;;;;1.45;1.35;;;15.80;99.90;;;;;;5115948;28;20189;-58
2022/06/08 05:54:35;;;;;;;1.92;1.20;;;15.70;99.90;;;;;;5115846;28;20584;-58
2022/06/08 05:57:02;;;;;;;1.00;0.90;;;15.80;99.90;;;;;;5114395;28;20217;-58
2022/06/08 05:59:27;;;;;;;0.60;0.60;;;15.90;99.90;;;;;;5115583;28;20177;-58
2022/06/08 06:01:53;;;;;;;1.20;1.00;;;15.90;99.90;;;;;;5114220;28;20205;-58
2022/06/08 06:04:19;;;;;;;0.80;0.70;;;16.00;99.90;;;;;;5097495;28;20178;-58
2022/06/08 06:06:48;;;;;;;1.65;0.80;;;16.00;99.90;;;;;;5115623;28;20275;-58
2022/06/08 06:09:18;;;;;;;1.23;0.80;;;16.00;99.90;;;;;;5115575;28;20215;-58
2022/06/08 06:11:45;;;;;;;1.40;1.00;;;16.10;99.90;;;;;;5114186;28;20241;-58
2022/06/08 06:14:11;;;;;;;1.20;0.95;;;16.10;99.90;;;;;;5115237;28;20165;-57
2022/06/08 06:16:37;;;;;;;0.90;0.90;;;16.10;99.90;;;;;;5115368;28;20578;-58
2022/06/08 06:19:03;;;;;;;0.95;0.80;;;16.20;99.90;;;;;;5115290;28;20169;-58
2022/06/08 06:21:29;;;;;;;1.98;1.08;;;16.10;99.90;;;;;;5114233;28;20206;-58
2022/06/08 06:23:57;;;;;;;2.70;1.48;;;16.10;99.90;;;;;;5115092;28;20177;-58
2022/06/08 06:26:24;;;;;;;2.42;1.10;;;16.20;99.90;;;;;;5115256;28;20173;-58
2022/06/08 06:28:49;;;;;;;1.45;0.80;;;16.20;99.90;;;;;;5114943;28;20173;-58
2022/06/08 06:31:20;;;;;;;0.82;0.82;;;16.20;99.90;;;;;;5114839;28;20187;-58
2022/06/08 06:33:46;;;;;;;1.02;0.82;;;16.30;99.90;;;;;;5115046;28;20173;-58
2022/06/08 06:36:12;;;;;;;1.23;1.02;;;16.30;99.90;;;;;;5115144;28;20187;-58
2022/06/08 06:38:38;;;;;;;1.17;0.90;;;16.30;99.90;;;;;;5114829;28;20201;-58
2022/06/08 06:41:04;;;;;;;1.05;0.98;;;16.40;99.90;;;;;;5113189;28;20235;-58
2022/06/08 06:43:30;;;;;;;2.40;1.50;;;16.40;99.90;;;;;;5113555;28;20169;-58
2022/06/08 06:45:56;;;;;;;0.98;0.85;;;16.60;99.90;;;;;;5113625;28;20165;-58
2022/06/08 06:48:21;;;;;;;1.17;1.05;;;16.50;99.90;;;;;;5113718;28;20173;-58
2022/06/08 06:50:47;;;;;;;1.88;1.08;;;16.50;99.90;;;;;;5114706;28;20201;-58
2022/06/08 06:53:13;;;;;;;1.40;0.90;;;16.50;99.90;;;;;;5112993;28;20264;-58
2022/06/08 06:55:39;;;;;;;2.13;0.88;;;16.60;99.90;;;;;;5114726;28;20180;-58
2022/06/08 06:58:06;;;;;;;1.02;0.82;;;16.50;99.90;;;;;;5114518;28;20169;-59
2022/06/08 07:00:32;;;;;;;1.50;1.17;;;16.50;99.90;;;;;;5114588;28;20201;-58
2022/06/08 07:02:58;;;;;;;1.05;0.80;;;16.50;99.90;;;;;;5114649;28;20173;-58
2022/06/08 07:05:28;;;;;;;2.35;1.10;;;16.40;99.90;;;;;;5114397;28;20523;-57
2022/06/08 07:07:54;;;;;;;1.52;1.17;;;16.50;99.90;;;;;;5114597;28;20247;-58
2022/06/08 07:10:20;;;;;;;1.35;1.00;;;16.40;99.90;;;;;;5113041;28;20181;-58
2022/06/08 07:12:46;;;;;;;1.20;0.80;;;16.40;99.90;;;;;;5114242;28;20196;-58
2022/06/08 07:15:14;;;;;;;1.52;1.08;;;16.40;99.90;;;;;;5114742;28;20201;-58
2022/06/08 07:17:39;;;;;;;2.30;1.35;;;16.40;99.90;;;;;;5114184;28;20555;-58
2022/06/08 07:20:06;;;;;;;1.75;0.90;;;16.40;99.90;;;;;;5112972;28;20201;-59
2022/06/08 07:22:32;;;;;;;1.15;0.80;;;16.40;99.90;;;;;;5114134;28;20267;-58
2022/06/08 07:24:57;;;;;;;2.85;1.08;;;16.40;99.90;;;;;;5095894;28;20256;-58
2022/06/08 07:27:23;;;;;;;3.17;1.40;;;16.40;99.90;;;;;;5113046;28;20192;-58
2022/06/08 07:29:49;;;;;;;2.70;1.27;;;16.40;99.90;;;;;;5114445;28;20176;-58
2022/06/08 07:32:15;;;;;;;1.38;0.95;;;16.20;99.90;;;;;;5112885;28;20650;-58
2022/06/08 07:34:41;;;;;;;1.40;1.05;;;16.20;99.90;;;;;;5114069;28;20251;-58
2022/06/08 07:37:07;;;;;;;2.00;1.35;;;16.20;99.90;;;;;;5113837;28;20193;-58
2022/06/08 07:39:33;;;;;;;1.67;1.00;;;16.20;99.90;;;;;;5112597;28;20173;-58
2022/06/08 07:41:58;;;;;;;1.15;0.90;;;16.20;99.90;;;;;;5114017;28;20200;-58
2022/06/08 07:44:24;;;;;;;1.40;0.95;;;16.20;99.90;;;;;;5113774;28;20169;-58
2022/06/08 07:46:50;;;;;;;1.85;1.17;;;16.30;99.90;;;;;;5113808;28;20252;-58
2022/06/08 07:49:38;;;;;;;2.00;1.10;;;16.20;99.90;;;;;;5112622;28;20165;-57
2022/06/08 07:52:13;;;;;;;1.23;0.98;;;16.30;99.90;;;;;;5112444;28;20517;-58
2022/06/08 07:54:41;;;;;;;1.10;1.00;;;16.30;99.90;;;;;;5113941;28;20153;-58
2022/06/08 07:57:08;;;;;;;2.30;1.00;;;16.30;99.90;;;;;;5113692;28;20173;-58
2022/06/08 07:59:36;;;;;;;1.50;1.20;;;16.30;99.90;;;;;;5113796;28;20210;-58
2022/06/08 08:02:04;;;;;;;1.25;1.08;;;16.30;99.90;;;;;;5113547;28;20216;-58
2022/06/08 08:04:30;;;;;;;1.15;1.05;;;16.20;99.90;;;;;;5114443;28;20165;-58
2022/06/08 08:06:56;;;;;;;1.13;1.00;;;16.30;99.90;;;;;;5118004;28;20224;-58
2022/06/08 08:09:23;;;;;;;1.00;0.90;;;16.30;99.90;;;;;;5118072;28;20192;-58
2022/06/08 08:11:52;;;;;;;1.73;1.10;;;16.30;99.90;;;;;;5117873;28;20184;-58
2022/06/08 08:14:19;;;;;;;1.85;1.15;;;16.20;99.90;;;;;;5117896;28;20593;-58
2022/06/08 08:16:45;;;;;;;3.03;1.45;;;16.20;99.90;;;;;;5117734;28;20637;-58
2022/06/08 08:19:13;;;;;;;1.17;1.08;;;16.00;99.90;;;;;;5117595;28;20166;-58
2022/06/08 08:21:39;;;;;;;1.95;1.25;;;16.10;99.90;;;;;;5117780;28;20267;-57
2022/06/08 08:24:06;;;;;;;1.30;1.13;;;16.00;99.90;;;;;;5117690;28;20298;-58
2022/06/08 08:26:32;;;;;;;1.08;0.88;;;15.90;99.90;;;;;;5117617;28;20165;-58
2022/06/08 08:28:58;;;;;;;2.00;0.95;;;15.90;99.90;;;;;;5117594;28;20260;-58
2022/06/08 08:31:24;;;;;;;1.50;1.40;;;15.80;99.90;;;;;;5117479;28;20165;-57
2022/06/08 08:33:50;;;;;;;2.25;0.98;;;15.80;99.90;;;;;;5117400;28;20170;-58
2022/06/08 08:36:17;;;;;;;1.88;1.17;;;15.70;99.90;;;;;;5117862;28;20517;-57
2022/06/08 08:38:44;;;;;;;1.85;0.98;;;15.80;99.90;;;;;;5117490;28;20168;-57
2022/06/08 08:43:58;;;;;;;3.20;1.00;;;15.60;99.90;;;;;;5117561;28;20184;-57
2022/06/08 08:46:34;;;;;;;0.77;0.77;;;15.50;99.90;;;;;;5098918;28;20177;-57
2022/06/08 08:49:19;;;;;;;2.05;1.17;;;15.40;99.90;;;;;;5117322;28;20247;-57
2022/06/08 08:52:07;;;;;;;0.82;0.82;;;15.50;99.90;;;;;;5117253;28;20172;-58
2022/06/08 08:54:36;;;;;;;2.42;1.00;;;15.40;99.90;;;;;;5109133;28;20563;-58
2022/06/08 08:57:28;;;;;;;1.27;0.90;;;15.40;99.90;;;;;;5117153;28;20173;-57
2022/06/08 08:59:54;;;;;;;1.55;1.20;;;15.50;99.90;;;;;;5116944;28;20736;-58
2022/06/08 09:05:21;;;;;;;1.48;1.00;;;15.50;99.90;;;;;;5116963;28;20176;-57
2022/06/08 09:07:47;;;;;;;1.00;0.90;;;15.40;99.90;;;;;;5117037;28;20200;-57
2022/06/08 09:10:22;;;;;;;1.35;0.80;;;15.50;99.90;;;;;;5115498;28;20161;-57
2022/06/08 09:12:49;;;;;;;1.33;1.20;;;15.60;99.90;;;;;;5116535;28;20217;-58
2022/06/08 09:15:17;;;;;;;2.40;0.73;;;15.60;99.90;;;;;;5116104;28;20173;-58
2022/06/08 09:17:57;;;;;;;0.70;0.70;;;15.40;99.90;;;;;;5116445;28;20162;-57
2022/06/08 09:20:31;;;;;;;1.00;0.90;;;15.50;99.90;;;;;;5116646;28;20169;-57
2022/06/08 09:23:01;;;;;;;1.20;1.10;;;15.30;99.90;;;;;;5116586;28;20478;-57
2022/06/08 09:25:33;;;;;;;1.45;1.05;;;15.40;99.90;;;;;;5116404;28;20522;-58
2022/06/08 09:28:00;;;;;;;8.30;1.30;;;15.40;99.90;;;;;;5116207;28;20243;-57
2022/06/08 09:30:27;;;;;;;1.20;1.10;;;15.50;99.90;;;;;;5115096;28;20630;-57
2022/06/08 09:32:59;;;;;;;1.10;1.00;;;15.40;99.90;;;;;;5116438;28;20157;-60
2022/06/08 09:35:38;;;;;;;0.93;0.93;;;15.50;99.90;;;;;;5116238;28;20206;-57
2022/06/08 09:38:12;;;;;;;1.85;1.10;;;15.50;99.90;;;;;;5116287;28;20172;-57
2022/06/08 09:40:47;;;;;;;1.00;0.90;;;15.30;99.90;;;;;;5116198;28;20251;-57
2022/06/08 09:43:52;;;;;;;1.65;1.20;;;15.20;99.90;;;;;;5116703;28;20169;-57
2022/06/08 09:53:03;;;;;;;2.53;1.17;;;15.30;99.90;;;;;;5116140;28;20176;-57
2022/06/08 09:55:53;;;;;;;1.90;0.98;;;15.40;99.90;;;;;;5116001;28;20161;-57
2022/06/08 09:58:46;;;;;;;1.30;1.15;;;15.40;99.90;;;;;;5115832;28;20161;-57
2022/06/08 10:01:29;;;;;;;1.50;1.35;;;15.40;99.90;;;;;;5114462;28;20201;-57
2022/06/08 10:04:27;;;;;;;1.45;1.30;;;15.40;99.90;;;;;;5115910;28;20221;-57
2022/06/08 10:07:11;;;;;;;1.23;1.13;;;15.40;99.90;;;;;;5097039;28;20208;-58
2022/06/08 10:10:00;;;;;;;2.88;1.10;;;15.60;99.90;;;;;;5115380;28;20234;-58
2022/06/08 10:12:38;;;;;;;1.35;1.13;;;15.60;99.90;;;;;;5116060;28;20161;-57
2022/06/08 10:15:39;;;;;;;1.40;1.30;;;15.60;99.90;;;;;;5115750;28;20546;-57
2022/06/08 10:18:26;;;;;;;2.90;1.58;;;15.60;99.90;;;;;;5092831;28;20188;-57
2022/06/08 10:20:56;;;;;;;1.80;1.20;;;15.60;99.90;;;;;;5115427;28;20189;-58
2022/06/08 10:23:36;;;;;;;1.02;1.00;;;15.70;99.90;;;;;;5114350;28;20199;-58
2022/06/08 10:26:25;;;;;;;1.10;1.00;;;15.80;99.90;;;;;;5115248;28;20626;-58
2022/06/08 10:28:54;;;;;;;2.65;1.38;;;15.70;99.90;;;;;;5107820;28;20177;-58
2022/06/08 10:31:38;;;;;;;1.35;1.10;;;15.60;99.90;;;;;;5114057;28;20169;-58
2022/06/08 10:34:17;;;;;;;1.38;1.15;;;15.50;99.90;;;;;;5115233;28;20247;-58
2022/06/08 10:36:46;;;;;;;1.27;1.17;;;15.60;99.90;;;;;;5113658;28;20211;-58
2022/06/08 10:39:13;;;;;;;0.90;0.90;;;15.60;99.90;;;;;;5114010;28;20244;-58
2022/06/08 10:44:58;;;;;;;1.13;1.00;;;15.70;99.90;;;;;;5115240;28;20172;-58
2022/06/08 10:47:33;;;;;;;2.53;1.20;;;15.70;99.90;;;;;;5110303;28;20649;-57
2022/06/08 10:50:03;;;;;;;2.40;1.13;;;15.80;99.90;;;;;;5114791;28;20168;-57
2022/06/08 10:52:45;;;;;;;1.65;1.20;;;15.80;99.90;;;;;;5114784;28;20566;-58
2022/06/08 10:55:17;;;;;;;0.90;0.88;;;15.80;99.90;;;;;;5114783;28;20170;-58
2022/06/08 10:57:51;;;;;;;2.53;1.00;;;15.80;99.90;;;;;;5114560;28;20382;-58
2022/06/08 11:00:20;;;;;;;1.40;0.80;;;15.80;99.90;;;;;;5114662;28;20167;-58
2022/06/08 11:03:03;;;;;;;1.05;0.95;;;15.80;99.90;;;;;;5114598;28;20173;-58
2022/06/08 11:05:29;;;;;;;1.27;1.08;;;15.80;99.90;;;;;;5114373;28;20181;-58
2022/06/08 11:08:06;;;;;;;1.15;0.90;;;15.80;99.90;;;;;;5114763;28;20675;-58
2022/06/08 11:10:44;;;;;;;1.15;0.88;;;15.80;99.90;;;;;;5114643;28;20617;-58
2022/06/08 11:13:22;;;;;;;1.52;0.82;;;15.70;99.90;;;;;;5114301;28;20682;-58
2022/06/08 11:16:06;;;;;;;0.70;0.70;;;15.80;99.90;;;;;;5114399;28;20169;-58
2022/06/08 11:18:47;;;;;;;0.80;0.80;;;15.80;99.90;;;;;;5114249;28;20506;-58
2022/06/08 11:21:24;;;;;;;1.10;1.00;;;15.90;99.90;;;;;;5114414;28;20723;-58
2022/06/08 11:24:03;;;;;;;1.05;0.85;;;15.90;99.90;;;;;;5114289;28;20169;-58
2022/06/08 11:26:38;;;;;;;1.05;0.73;;;15.90;99.90;;;;;;5114246;28;20172;-58
2022/06/08 11:29:16;;;;;;;0.70;0.70;;;16.00;99.90;;;;;;5114300;28;20171;-58
2022/06/08 11:31:42;;;;;;;1.30;0.88;;;16.00;99.90;;;;;;5114130;28;20200;-58
2022/06/08 11:34:19;;;;;;;0.75;0.70;;;16.10;99.90;;;;;;5114102;28;20195;-58
2022/06/08 11:37:19;;;;;;;0.68;0.47;;;16.10;99.90;;;;;;5112936;28;20263;-58
2022/06/08 11:40:11;;;;;;;0.90;0.70;;;16.10;99.90;;;;;;5113797;28;20180;-58
2022/06/08 11:42:50;;;;;;;0.68;0.65;;;16.20;99.90;;;;;;5113780;28;20550;-58
2022/06/08 11:45:21;;;;;;;0.63;0.60;;;16.20;99.90;;;;;;5113940;28;20185;-58
2022/06/08 11:47:52;;;;;;;0.80;0.70;;;16.20;99.90;;;;;;5114039;28;20165;-58
2022/06/08 11:50:51;;;;;;;0.57;0.57;;;16.30;99.90;;;;;;5113933;28;20161;-60
2022/06/08 11:53:33;;;;;;;0.50;0.50;;;16.30;99.90;;;;;;5099669;28;20641;-58
2022/06/08 11:56:29;;;;;;;0.70;0.60;;;16.40;99.90;;;;;;5113659;28;20172;-58
2022/06/08 11:59:04;;;;;;;0.55;0.55;;;16.30;99.90;;;;;;5113870;28;20203;-58
2022/06/08 12:01:42;;;;;;;0.65;0.50;;;16.30;99.90;;;;;;5113620;28;20265;-58
2022/06/08 12:04:14;;;;;;;0.50;0.50;;;16.30;99.90;;;;;;5113603;28;20161;-58
2022/06/08 12:06:41;;;;;;;0.93;0.80;;;16.40;99.90;;;;;;5113877;28;20260;-58
2022/06/08 12:09:15;;;;;;;0.60;0.60;;;16.30;99.90;;;;;;5113682;28;20161;-58
2022/06/08 12:11:45;;;;;;;0.82;0.82;;;16.40;99.90;;;;;;5113703;28;20173;-58
2022/06/08 12:14:16;;;;;;;0.55;0.50;;;16.50;99.90;;;;;;5113654;28;20218;-58
2022/06/08 12:17:14;;;;;;;0.70;0.70;;;16.60;99.90;;;;;;5113414;28;20256;-58
2022/06/08 12:19:41;;;;;;;0.80;0.80;;;16.50;99.90;;;;;;5105320;28;20181;-58
2022/06/08 12:22:15;;;;;;;1.00;0.90;;;16.60;99.90;;;;;;5113516;28;20232;-58
2022/06/08 12:24:41;;;;;;;2.13;0.93;;;16.70;99.90;;;;;;5113564;28;20157;-58
2022/06/08 12:27:24;;;;;;;1.20;0.90;;;16.80;99.90;;;;;;5113440;28;20165;-58
2022/06/08 12:29:54;;;;;;;1.73;1.00;;;16.90;99.90;;;;;;5113569;28;20171;-58
2022/06/08 12:32:34;;;;;;;1.25;0.85;;;16.90;99.90;;;;;;5112200;28;20168;-58
2022/06/08 12:35:09;;;;;;;1.17;0.90;;;16.80;99.90;;;;;;5113472;28;20161;-58
2022/06/08 12:37:46;;;;;;;1.13;1.05;;;16.90;99.90;;;;;;5113316;28;20177;-58
2022/06/08 12:40:17;;;;;;;1.17;1.00;;;16.80;99.90;;;;;;5113398;28;20252;-58
2022/06/08 12:43:07;;;;;;;1.90;1.20;;;16.90;99.90;;;;;;5113281;28;20216;-58
2022/06/08 12:45:37;;;;;;;1.40;1.30;;;16.90;99.90;;;;;;5113306;28;20661;-58
2022/06/08 12:48:36;;;;;;;1.58;1.48;;;17.00;99.90;;;;;;5113124;28;20577;-58
2022/06/08 12:51:23;;;;;;;2.42;1.20;;;16.90;99.90;;;;;;5114826;28;20632;-58
2022/06/08 12:53:49;;;;;;;1.20;1.10;;;16.80;99.90;;;;;;5117180;28;20165;-58
2022/06/08 12:56:17;;;;;;;1.50;1.30;;;16.90;99.90;;;;;;5117073;28;20207;-58
2022/06/08 12:58:44;;;;;;;1.63;1.30;;;17.00;99.90;;;;;;5116966;28;20180;-58
2022/06/08 13:01:12;;;;;;;1.50;1.23;;;17.10;99.90;;;;;;5115998;28;20193;-59
2022/06/08 13:03:39;;;;;;;1.40;1.30;;;17.10;99.90;;;;;;5115786;28;20238;-58
2022/06/08 13:06:05;;;;;;;2.15;1.40;;;17.10;99.90;;;;;;5116909;28;20268;-59
2022/06/08 13:08:31;;;;;;;2.42;1.70;;;16.90;99.90;;;;;;5116787;28;20170;-58
2022/06/08 13:11:00;;;;;;;2.28;1.42;;;16.90;99.90;;;;;;5115415;28;20203;-58
2022/06/08 13:13:30;;;;;;;3.00;1.42;;;16.90;99.90;;;;;;5116793;28;20173;-58
2022/06/08 13:15:58;;;;;;;1.95;1.35;;;16.90;99.90;;;;;;5116746;28;20196;-58
2022/06/08 13:18:26;;;;;;;2.42;1.50;;;16.90;99.90;;;;;;5116591;28;20176;-58
2022/06/08 13:20:54;;;;;;;2.05;1.50;;;16.90;99.90;;;;;;5116451;28;20193;-58
2022/06/08 13:23:21;;;;;;;1.98;1.55;;;16.90;99.90;;;;;;5116391;28;20169;-58
2022/06/08 13:25:49;;;;;;;1.50;1.15;;;17.00;99.90;;;;;;5116638;28;20161;-58
2022/06/08 13:28:24;;;;;;;2.05;1.20;;;17.10;99.90;;;;;;5116673;28;20153;-58
2022/06/08 13:30:52;;;;;;;1.40;1.30;;;17.10;99.90;;;;;;5116435;28;20168;-58